createdAt,value
2018-03-14T00:00:46.850Z,1008.97
2018-03-14T00:01:46.806Z,1008.97
2018-03-14T00:02:46.790Z,1008.97
2018-03-14T00:03:46.768Z,1009.03
2018-03-14T00:04:46.751Z,1009.04
2018-03-14T00:05:46.734Z,1009.04
2018-03-14T00:06:46.733Z,1009.01
2018-03-14T00:07:46.698Z,1009.03
2018-03-14T00:08:46.680Z,1009.03
2018-03-14T00:09:46.662Z,1009.03
2018-03-14T00:10:46.660Z,1008.93
2018-03-14T00:11:46.627Z,1009.01
2018-03-14T00:12:46.620Z,1009.03
2018-03-14T00:13:46.591Z,1009.04
2018-03-14T00:14:46.572Z,1009.08
2018-03-14T00:15:46.556Z,1009.04
2018-03-14T00:16:46.537Z,1008.96
2018-03-14T00:17:46.534Z,1008.98
2018-03-14T00:18:46.499Z,1008.96
2018-03-14T00:19:46.479Z,1009.02
2018-03-14T00:20:46.475Z,1009.03
2018-03-14T00:21:46.444Z,1009.04
2018-03-14T00:23:07.438Z,1009.06
2018-03-14T00:23:46.409Z,1009.02
2018-03-14T00:24:46.388Z,1009.03
2018-03-14T00:25:46.372Z,1009.01
2018-03-14T00:26:46.366Z,1009.09
2018-03-14T00:27:46.335Z,1009.04
2018-03-14T00:28:46.332Z,1009.00
2018-03-14T00:29:46.297Z,1008.94
2018-03-14T00:30:46.281Z,1008.99
2018-03-14T00:31:46.258Z,1008.99
2018-03-14T00:32:46.244Z,1008.98
2018-03-14T00:33:46.240Z,1008.91
2018-03-14T00:34:46.208Z,1008.91
2018-03-14T00:35:46.190Z,1009.00
2018-03-14T00:36:46.170Z,1009.00
2018-03-14T00:37:46.170Z,1008.98
2018-03-14T00:38:46.145Z,1009.00
2018-03-14T00:39:46.118Z,1008.99
2018-03-14T00:40:46.097Z,1009.01
2018-03-14T00:41:46.081Z,1009.05
2018-03-14T00:42:46.061Z,1009.03
2018-03-14T00:43:46.058Z,1009.04
2018-03-14T00:44:46.024Z,1009.01
2018-03-14T00:45:46.010Z,1009.00
2018-03-14T00:46:45.990Z,1009.03
2018-03-14T00:47:45.985Z,1009.00
2018-03-14T00:48:45.948Z,1009.02
2018-03-14T00:49:45.947Z,1008.96
2018-03-14T00:50:45.915Z,1008.97
2018-03-14T00:51:45.892Z,1008.99
2018-03-14T00:52:45.879Z,1008.97
2018-03-14T00:53:45.876Z,1008.95
2018-03-14T00:54:45.845Z,1008.97
2018-03-14T00:55:45.839Z,1008.98
2018-03-14T00:56:45.806Z,1008.96
2018-03-14T00:57:45.789Z,1008.97
2018-03-14T00:58:45.800Z,1008.98
2018-03-14T00:59:45.747Z,1008.99
2018-03-14T01:00:45.770Z,1008.98
2018-03-14T01:01:45.717Z,1009.01
2018-03-14T01:02:45.699Z,1009.03
2018-03-14T01:03:45.680Z,1009.03
2018-03-14T01:04:45.663Z,1009.01
2018-03-14T01:05:45.644Z,1009.03
2018-03-14T01:06:45.642Z,1009.04
2018-03-14T01:07:45.605Z,1009.03
2018-03-14T01:08:45.588Z,1009.03
2018-03-14T01:09:45.572Z,1009.02
2018-03-14T01:10:45.569Z,1009.04
2018-03-14T01:11:45.546Z,1008.99
2018-03-14T01:12:45.517Z,1009.00
2018-03-14T01:13:45.497Z,1009.01
2018-03-14T01:14:45.479Z,1008.98
2018-03-14T01:15:45.462Z,1009.01
2018-03-14T01:16:45.457Z,1009.03
2018-03-14T01:17:45.461Z,1009.00
2018-03-14T01:18:45.409Z,1009.00
2018-03-14T01:19:45.389Z,1008.97
2018-03-14T01:20:45.365Z,1008.96
2018-03-14T01:21:45.368Z,1008.95
2018-03-14T01:22:45.335Z,1008.97
2018-03-14T01:23:45.311Z,1008.97
2018-03-14T01:24:45.305Z,1008.96
2018-03-14T01:25:45.281Z,1008.99
2018-03-14T01:26:45.280Z,1008.98
2018-03-14T01:27:45.241Z,1008.95
2018-03-14T01:28:45.224Z,1008.98
2018-03-14T01:29:45.213Z,1008.97
2018-03-14T01:30:45.189Z,1008.95
2018-03-14T01:31:45.171Z,1008.95
2018-03-14T01:32:45.165Z,1008.95
2018-03-14T01:33:45.133Z,1008.96
2018-03-14T01:34:45.119Z,1008.95
2018-03-14T01:35:45.098Z,1008.96
2018-03-14T01:36:45.078Z,1008.96
2018-03-14T01:37:45.077Z,1008.96
2018-03-14T01:38:45.043Z,1008.96
2018-03-14T01:39:45.023Z,1008.94
2018-03-14T01:40:45.009Z,1008.95
2018-03-14T01:41:44.994Z,1008.91
2018-03-14T01:42:44.990Z,1008.91
2018-03-14T01:43:44.953Z,1008.92
2018-03-14T01:44:44.935Z,1008.92
2018-03-14T01:45:44.918Z,1008.95
2018-03-14T01:46:44.900Z,1008.88
2018-03-14T01:47:44.896Z,1008.91
2018-03-14T01:48:44.865Z,1008.86
2018-03-14T01:49:44.846Z,1008.90
2018-03-14T01:50:44.826Z,1008.85
2018-03-14T01:51:44.809Z,1008.86
2018-03-14T01:52:44.787Z,1008.86
2018-03-14T01:54:05.884Z,1008.79
2018-03-14T01:54:44.755Z,1008.80
2018-03-14T01:55:44.736Z,1008.81
2018-03-14T01:56:44.723Z,1008.79
2018-03-14T01:57:44.701Z,1008.78
2018-03-14T01:58:44.700Z,1008.81
2018-03-14T01:59:44.666Z,1008.79
2018-03-14T02:00:44.649Z,1008.82
2018-03-14T02:01:44.629Z,1008.81
2018-03-14T02:02:44.611Z,1008.83
2018-03-14T02:03:44.608Z,1008.81
2018-03-14T02:04:44.574Z,1008.80
2018-03-14T02:05:44.559Z,1008.82
2018-03-14T02:06:44.539Z,1008.83
2018-03-14T02:07:44.522Z,1008.84
2018-03-14T02:08:44.517Z,1008.84
2018-03-14T02:09:44.499Z,1008.87
2018-03-14T02:10:44.482Z,1008.87
2018-03-14T02:11:44.448Z,1008.90
2018-03-14T02:12:44.430Z,1008.90
2018-03-14T02:13:44.413Z,1008.90
2018-03-14T02:14:44.394Z,1008.86
2018-03-14T02:15:44.392Z,1008.85
2018-03-14T02:16:44.359Z,1008.86
2018-03-14T02:17:44.341Z,1008.86
2018-03-14T02:18:44.325Z,1008.90
2018-03-14T02:19:44.325Z,1008.89
2018-03-14T02:20:44.285Z,1008.90
2018-03-14T02:21:44.266Z,1008.87
2018-03-14T02:22:44.252Z,1008.86
2018-03-14T02:23:44.235Z,1008.87
2018-03-14T02:24:44.211Z,1008.88
2018-03-14T02:25:44.214Z,1008.90
2018-03-14T02:26:44.179Z,1008.87
2018-03-14T02:27:44.155Z,1008.86
2018-03-14T02:28:44.140Z,1008.88
2018-03-14T02:29:44.126Z,1008.85
2018-03-14T02:30:44.141Z,1008.90
2018-03-14T02:31:44.086Z,1008.88
2018-03-14T02:32:44.067Z,1008.85
2018-03-14T02:33:44.057Z,1008.86
2018-03-14T02:34:44.033Z,1008.88
2018-03-14T02:35:44.015Z,1008.86
2018-03-14T02:36:44.014Z,1008.87
2018-03-14T02:37:43.995Z,1008.85
2018-03-14T02:38:43.964Z,1008.85
2018-03-14T02:39:43.946Z,1008.85
2018-03-14T02:40:43.926Z,1008.81
2018-03-14T02:41:43.930Z,1008.83
2018-03-14T02:42:43.887Z,1008.82
2018-03-14T02:43:43.875Z,1008.75
2018-03-14T02:44:43.856Z,1008.79
2018-03-14T02:45:43.855Z,1008.74
2018-03-14T02:46:43.818Z,1008.77
2018-03-14T02:47:43.801Z,1008.80
2018-03-14T02:48:43.787Z,1008.76
2018-03-14T02:49:43.766Z,1008.76
2018-03-14T02:50:43.745Z,1008.79
2018-03-14T02:51:43.746Z,1008.78
2018-03-14T02:52:43.728Z,1008.75
2018-03-14T02:53:43.696Z,1008.77
2018-03-14T02:54:43.679Z,1008.75
2018-03-14T02:55:43.662Z,1008.74
2018-03-14T02:56:43.651Z,1008.76
2018-03-14T02:57:43.621Z,1008.76
2018-03-14T02:58:43.610Z,1008.77
2018-03-14T02:59:43.588Z,1008.79
2018-03-14T03:00:43.568Z,1008.76
2018-03-14T03:01:43.565Z,1008.78
2018-03-14T03:02:43.533Z,1008.81
2018-03-14T03:03:43.518Z,1008.80
2018-03-14T03:04:43.497Z,1008.78
2018-03-14T03:05:43.480Z,1008.82
2018-03-14T03:06:43.481Z,1008.81
2018-03-14T03:07:43.439Z,1008.84
2018-03-14T03:08:43.425Z,1008.78
2018-03-14T03:09:43.408Z,1008.79
2018-03-14T03:10:43.427Z,1008.84
2018-03-14T03:11:43.375Z,1008.77
2018-03-14T03:12:43.366Z,1008.79
2018-03-14T03:13:43.333Z,1008.82
2018-03-14T03:14:43.320Z,1008.74
2018-03-14T03:15:43.300Z,1008.76
2018-03-14T03:16:43.313Z,1008.78
2018-03-14T03:17:43.269Z,1008.84
2018-03-14T03:18:43.247Z,1008.81
2018-03-14T03:19:43.231Z,1008.81
2018-03-14T03:20:43.212Z,1008.82
2018-03-14T03:21:43.193Z,1008.81
2018-03-14T03:22:43.191Z,1008.81
2018-03-14T03:23:43.159Z,1008.83
2018-03-14T03:24:43.140Z,1008.82
2018-03-14T03:25:43.122Z,1008.83
2018-03-14T03:26:43.106Z,1008.86
2018-03-14T03:27:43.100Z,1008.86
2018-03-14T03:28:43.072Z,1008.82
2018-03-14T03:29:43.050Z,1008.87
2018-03-14T03:30:43.038Z,1008.90
2018-03-14T03:31:43.019Z,1008.86
2018-03-14T03:32:43.018Z,1008.90
2018-03-14T03:33:42.980Z,1008.89
2018-03-14T03:34:42.966Z,1008.85
2018-03-14T03:35:42.945Z,1008.87
2018-03-14T03:36:42.928Z,1008.85
2018-03-14T03:37:42.912Z,1008.90
2018-03-14T03:38:42.912Z,1008.91
2018-03-14T03:39:42.876Z,1008.90
2018-03-14T03:40:42.857Z,1008.90
2018-03-14T03:41:42.843Z,1008.95
2018-03-14T03:42:42.824Z,1008.93
2018-03-14T03:43:42.820Z,1008.95
2018-03-14T03:44:42.789Z,1008.93
2018-03-14T03:45:42.767Z,1008.91
2018-03-14T03:46:42.751Z,1008.94
2018-03-14T03:47:42.736Z,1008.94
2018-03-14T03:48:42.731Z,1008.95
2018-03-14T03:49:42.698Z,1008.93
2018-03-14T03:50:42.682Z,1008.91
2018-03-14T03:51:42.664Z,1008.90
2018-03-14T03:52:42.647Z,1008.92
2018-03-14T03:53:42.646Z,1008.89
2018-03-14T03:54:42.612Z,1008.93
2018-03-14T03:55:42.608Z,1008.92
2018-03-14T03:56:42.574Z,1008.93
2018-03-14T03:57:42.559Z,1008.97
2018-03-14T03:58:42.557Z,1008.92
2018-03-14T03:59:42.519Z,1008.92
2018-03-14T04:00:42.554Z,1008.96
2018-03-14T04:01:42.491Z,1008.91
2018-03-14T04:02:42.470Z,1008.92
2018-03-14T04:03:42.464Z,1008.89
2018-03-14T04:04:42.436Z,1008.91
2018-03-14T04:05:42.421Z,1008.95
2018-03-14T04:06:42.400Z,1008.94
2018-03-14T04:07:42.396Z,1008.97
2018-03-14T04:08:42.368Z,1008.96
2018-03-14T04:09:42.352Z,1008.97
2018-03-14T04:10:42.345Z,1008.99
2018-03-14T04:11:42.309Z,1008.97
2018-03-14T04:12:42.298Z,1009.01
2018-03-14T04:13:42.279Z,1009.02
2018-03-14T04:14:42.265Z,1009.00
2018-03-14T04:15:42.261Z,1009.02
2018-03-14T04:16:42.226Z,1009.00
2018-03-14T04:17:42.209Z,1008.99
2018-03-14T04:18:42.191Z,1008.99
2018-03-14T04:19:42.173Z,1008.98
2018-03-14T04:20:42.171Z,1009.05
2018-03-14T04:21:42.158Z,1009.03
2018-03-14T04:22:42.138Z,1009.06
2018-03-14T04:23:42.104Z,1009.04
2018-03-14T04:24:42.086Z,1009.04
2018-03-14T04:25:42.068Z,1009.00
2018-03-14T04:26:42.051Z,1009.05
2018-03-14T04:27:42.034Z,1009.06
2018-03-14T04:28:42.032Z,1009.07
2018-03-14T04:29:41.996Z,1009.03
2018-03-14T04:30:41.982Z,1009.07
2018-03-14T04:31:41.966Z,1009.07
2018-03-14T04:32:41.979Z,1009.06
2018-03-14T04:33:41.929Z,1009.10
2018-03-14T04:34:41.909Z,1009.10
2018-03-14T04:35:41.890Z,1009.12
2018-03-14T04:36:41.873Z,1009.16
2018-03-14T04:37:41.858Z,1009.15
2018-03-14T04:38:41.860Z,1009.17
2018-03-14T04:39:41.822Z,1009.17
2018-03-14T04:40:41.802Z,1009.14
2018-03-14T04:41:41.783Z,1009.14
2018-03-14T04:42:41.783Z,1009.12
2018-03-14T04:43:41.749Z,1009.11
2018-03-14T04:44:41.729Z,1009.13
2018-03-14T04:45:41.714Z,1009.12
2018-03-14T04:46:41.695Z,1009.10
2018-03-14T04:47:41.692Z,1009.04
2018-03-14T04:48:41.659Z,1009.05
2018-03-14T04:49:41.642Z,1009.04
2018-03-14T04:50:41.622Z,1009.08
2018-03-14T04:51:41.605Z,1009.04
2018-03-14T04:52:41.603Z,1009.05
2018-03-14T04:53:41.570Z,1009.08
2018-03-14T04:54:41.552Z,1009.07
2018-03-14T04:55:41.534Z,1009.03
2018-03-14T04:56:41.516Z,1009.08
2018-03-14T04:57:41.513Z,1009.05
2018-03-14T04:58:41.504Z,1009.06
2018-03-14T04:59:41.465Z,1009.07
2018-03-14T05:00:41.447Z,1009.11
2018-03-14T05:01:41.430Z,1009.12
2018-03-14T05:02:41.429Z,1009.13
2018-03-14T05:03:41.410Z,1009.16
2018-03-14T05:04:41.378Z,1009.12
2018-03-14T05:05:41.356Z,1009.13
2018-03-14T05:06:41.341Z,1009.13
2018-03-14T05:07:41.323Z,1009.14
2018-03-14T05:08:41.301Z,1009.15
2018-03-14T05:09:41.301Z,1009.15
2018-03-14T05:10:41.265Z,1009.10
2018-03-14T05:11:41.249Z,1009.12
2018-03-14T05:12:41.231Z,1009.15
2018-03-14T05:13:41.229Z,1009.14
2018-03-14T05:14:41.216Z,1009.13
2018-03-14T05:15:41.192Z,1009.18
2018-03-14T05:16:41.162Z,1009.17
2018-03-14T05:17:41.143Z,1009.19
2018-03-14T05:18:41.125Z,1009.16
2018-03-14T05:19:41.118Z,1009.16
2018-03-14T05:20:41.087Z,1009.11
2018-03-14T05:21:41.069Z,1009.15
2018-03-14T05:22:41.052Z,1009.11
2018-03-14T05:23:41.052Z,1009.13
2018-03-14T05:24:41.019Z,1009.10
2018-03-14T05:25:40.999Z,1009.11
2018-03-14T05:26:41.036Z,1009.10
2018-03-14T05:27:40.965Z,1009.11
2018-03-14T05:28:40.946Z,1009.10
2018-03-14T05:29:40.942Z,1009.10
2018-03-14T05:30:40.930Z,1009.13
2018-03-14T05:31:40.891Z,1009.12
2018-03-14T05:32:40.872Z,1009.11
2018-03-14T05:33:40.857Z,1009.09
2018-03-14T05:34:40.835Z,1009.15
2018-03-14T05:35:40.822Z,1009.15
2018-03-14T05:36:40.816Z,1009.13
2018-03-14T05:37:40.784Z,1009.15
2018-03-14T05:38:40.766Z,1009.16
2018-03-14T05:39:40.764Z,1009.16
2018-03-14T05:40:40.730Z,1009.17
2018-03-14T05:41:40.711Z,1009.17
2018-03-14T05:42:40.694Z,1009.18
2018-03-14T05:43:40.674Z,1009.19
2018-03-14T05:44:40.668Z,1009.22
2018-03-14T05:45:40.638Z,1009.24
2018-03-14T05:46:40.620Z,1009.23
2018-03-14T05:47:40.601Z,1009.27
2018-03-14T05:48:40.584Z,1009.24
2018-03-14T05:49:40.585Z,1009.22
2018-03-14T05:50:40.548Z,1009.21
2018-03-14T05:51:40.532Z,1009.22
2018-03-14T05:52:40.510Z,1009.20
2018-03-14T05:53:40.501Z,1009.23
2018-03-14T05:54:40.490Z,1009.16
2018-03-14T05:55:40.456Z,1009.24
2018-03-14T05:56:40.456Z,1009.23
2018-03-14T05:57:40.419Z,1009.23
2018-03-14T05:58:40.401Z,1009.24
2018-03-14T05:59:40.427Z,1009.21
2018-03-14T06:00:40.368Z,1009.21
2018-03-14T06:01:40.362Z,1009.25
2018-03-14T06:02:40.331Z,1009.24
2018-03-14T06:03:40.311Z,1009.25
2018-03-14T06:04:40.292Z,1009.25
2018-03-14T06:05:40.275Z,1009.24
2018-03-14T06:07:01.269Z,1009.26
2018-03-14T06:07:40.241Z,1009.29
2018-03-14T06:08:40.219Z,1009.27
2018-03-14T06:09:40.219Z,1009.29
2018-03-14T06:10:40.187Z,1009.29
2018-03-14T06:11:40.180Z,1009.27
2018-03-14T06:12:40.146Z,1009.33
2018-03-14T06:13:40.126Z,1009.27
2018-03-14T06:14:40.110Z,1009.31
2018-03-14T06:15:40.090Z,1009.35
2018-03-14T06:16:40.092Z,1009.33
2018-03-14T06:17:40.056Z,1009.33
2018-03-14T06:18:40.037Z,1009.35
2018-03-14T06:19:40.015Z,1009.40
2018-03-14T06:20:40.003Z,1009.43
2018-03-14T06:21:40.008Z,1009.38
2018-03-14T06:22:39.964Z,1009.41
2018-03-14T06:23:39.949Z,1009.38
2018-03-14T06:24:39.923Z,1009.35
2018-03-14T06:25:39.909Z,1009.30
2018-03-14T06:26:39.902Z,1009.32
2018-03-14T06:27:39.887Z,1009.31
2018-03-14T06:28:39.849Z,1009.32
2018-03-14T06:29:39.831Z,1009.36
2018-03-14T06:30:39.818Z,1009.31
2018-03-14T06:31:39.810Z,1009.31
2018-03-14T06:32:39.794Z,1009.38
2018-03-14T06:33:39.776Z,1009.35
2018-03-14T06:34:39.797Z,1009.39
2018-03-14T06:35:39.729Z,1009.43
2018-03-14T06:36:39.705Z,1009.43
2018-03-14T06:37:39.701Z,1009.41
2018-03-14T06:38:39.673Z,1009.43
2018-03-14T06:39:39.659Z,1009.43
2018-03-14T06:40:39.631Z,1009.45
2018-03-14T06:41:39.616Z,1009.45
2018-03-14T06:42:39.620Z,1009.46
2018-03-14T06:43:39.575Z,1009.47
2018-03-14T06:44:39.554Z,1009.52
2018-03-14T06:45:39.541Z,1009.50
2018-03-14T06:46:39.521Z,1009.52
2018-03-14T06:47:39.505Z,1009.55
2018-03-14T06:48:39.500Z,1009.54
2018-03-14T06:49:39.478Z,1009.53
2018-03-14T06:50:39.441Z,1009.58
2018-03-14T06:51:39.422Z,1009.57
2018-03-14T06:52:39.411Z,1009.61
2018-03-14T06:53:39.404Z,1009.58
2018-03-14T06:54:39.375Z,1009.61
2018-03-14T06:55:39.352Z,1009.57
2018-03-14T06:56:39.334Z,1009.59
2018-03-14T06:57:39.320Z,1009.57
2018-03-14T06:58:39.312Z,1009.63
2018-03-14T06:59:39.278Z,1009.60
2018-03-14T07:00:39.259Z,1009.64
2018-03-14T07:01:39.240Z,1009.63
2018-03-14T07:02:39.226Z,1009.64
2018-03-14T07:03:39.202Z,1009.65
2018-03-14T07:04:39.198Z,1009.70
2018-03-14T07:05:39.163Z,1009.64
2018-03-14T07:06:39.147Z,1009.72
2018-03-14T07:07:39.141Z,1009.64
2018-03-14T07:08:39.109Z,1009.68
2018-03-14T07:09:39.103Z,1009.68
2018-03-14T07:10:39.068Z,1009.68
2018-03-14T07:11:39.069Z,1009.71
2018-03-14T07:12:39.032Z,1009.72
2018-03-14T07:13:39.016Z,1009.68
2018-03-14T07:14:39.010Z,1009.70
2018-03-14T07:15:38.977Z,1009.71
2018-03-14T07:16:38.959Z,1009.72
2018-03-14T07:17:38.943Z,1009.72
2018-03-14T07:18:38.923Z,1009.72
2018-03-14T07:19:38.917Z,1009.74
2018-03-14T07:20:38.882Z,1009.69
2018-03-14T07:21:38.862Z,1009.72
2018-03-14T07:22:38.843Z,1009.75
2018-03-14T07:23:38.827Z,1009.74
2018-03-14T07:24:38.831Z,1009.73
2018-03-14T07:25:38.791Z,1009.73
2018-03-14T07:26:38.773Z,1009.74
2018-03-14T07:27:38.754Z,1009.73
2018-03-14T07:28:38.737Z,1009.76
2018-03-14T07:29:38.714Z,1009.74
2018-03-14T07:30:38.714Z,1009.76
2018-03-14T07:31:38.679Z,1009.79
2018-03-14T07:32:38.663Z,1009.82
2018-03-14T07:33:38.645Z,1009.85
2018-03-14T07:34:38.630Z,1009.84
2018-03-14T07:35:38.620Z,1009.78
2018-03-14T07:36:38.585Z,1009.80
2018-03-14T07:37:38.568Z,1009.80
2018-03-14T07:38:38.573Z,1009.77
2018-03-14T07:39:38.532Z,1009.78
2018-03-14T07:40:38.512Z,1009.80
2018-03-14T07:41:38.500Z,1009.77
2018-03-14T07:42:38.483Z,1009.76
2018-03-14T07:43:38.467Z,1009.74
2018-03-14T07:44:38.500Z,1009.75
2018-03-14T07:45:38.427Z,1009.75
2018-03-14T07:46:38.407Z,1009.74
2018-03-14T07:47:38.391Z,1009.76
2018-03-14T07:48:38.373Z,1009.79
2018-03-14T07:49:38.365Z,1009.82
2018-03-14T07:50:38.334Z,1009.88
2018-03-14T07:51:38.317Z,1009.87
2018-03-14T07:52:38.357Z,1009.90
2018-03-14T07:53:38.290Z,1009.92
2018-03-14T07:54:38.264Z,1009.92
2018-03-14T07:55:38.241Z,1009.97
2018-03-14T07:56:38.226Z,1009.95
2018-03-14T07:57:38.210Z,1010.00
2018-03-14T07:58:38.206Z,1009.96
2018-03-14T07:59:38.173Z,1009.92
2018-03-14T08:00:38.152Z,1009.96
2018-03-14T08:01:38.136Z,1010.01
2018-03-14T08:02:38.120Z,1009.95
2018-03-14T08:03:38.116Z,1009.91
2018-03-14T08:04:38.080Z,1009.93
2018-03-14T08:05:38.063Z,1009.87
2018-03-14T08:06:38.064Z,1009.92
2018-03-14T08:07:38.050Z,1009.90
2018-03-14T08:08:38.024Z,1009.85
2018-03-14T08:09:37.994Z,1009.88
2018-03-14T08:10:37.975Z,1009.89
2018-03-14T08:11:37.961Z,1009.88
2018-03-14T08:12:37.943Z,1009.82
2018-03-14T08:13:38.058Z,1009.79
2018-03-14T08:14:37.922Z,1009.82
2018-03-14T08:15:37.898Z,1009.82
2018-03-14T08:16:37.872Z,1009.77
2018-03-14T08:17:37.850Z,1009.79
2018-03-14T08:18:37.832Z,1009.75
2018-03-14T08:19:37.813Z,1009.78
2018-03-14T08:20:37.815Z,1009.78
2018-03-14T08:21:37.780Z,1009.89
2018-03-14T08:22:37.764Z,1009.85
2018-03-14T08:23:37.743Z,1009.83
2018-03-14T08:24:37.725Z,1009.88
2018-03-14T08:25:37.727Z,1009.88
2018-03-14T08:26:37.691Z,1009.86
2018-03-14T08:27:37.674Z,1009.90
2018-03-14T08:28:37.668Z,1009.90
2018-03-14T08:29:37.638Z,1009.91
2018-03-14T08:30:37.701Z,1009.88
2018-03-14T08:31:37.619Z,1009.92
2018-03-14T08:32:37.588Z,1009.93
2018-03-14T08:33:37.563Z,1009.92
2018-03-14T08:34:37.562Z,1009.88
2018-03-14T08:35:37.528Z,1009.89
2018-03-14T08:36:37.511Z,1009.88
2018-03-14T08:37:37.512Z,1009.87
2018-03-14T08:38:37.478Z,1009.87
2018-03-14T08:39:37.457Z,1009.92
2018-03-14T08:40:37.439Z,1009.94
2018-03-14T08:41:37.428Z,1009.95
2018-03-14T08:42:37.419Z,1009.92
2018-03-14T08:43:37.387Z,1009.99
2018-03-14T08:44:37.367Z,1010.00
2018-03-14T08:45:37.353Z,1009.96
2018-03-14T08:46:37.337Z,1009.93
2018-03-14T08:47:37.331Z,1009.87
2018-03-14T08:48:37.301Z,1009.89
2018-03-14T08:49:37.279Z,1009.92
2018-03-14T08:50:37.268Z,1009.90
2018-03-14T08:51:37.246Z,1009.93
2018-03-14T08:52:37.266Z,1009.93
2018-03-14T08:53:37.221Z,1009.94
2018-03-14T08:54:37.192Z,1009.93
2018-03-14T08:55:37.174Z,1009.86
2018-03-14T08:56:37.159Z,1009.93
2018-03-14T08:57:37.142Z,1009.89
2018-03-14T08:58:37.156Z,1009.89
2018-03-14T08:59:37.108Z,1009.95
2018-03-14T09:00:37.095Z,1010.08
2018-03-14T09:01:37.073Z,1010.34
2018-03-14T09:02:37.055Z,1010.41
2018-03-14T09:03:37.038Z,1010.29
2018-03-14T09:04:37.036Z,1010.62
2018-03-14T09:05:37.002Z,1011.99
2018-03-14T09:06:36.987Z,1012.75
2018-03-14T09:07:36.966Z,1013.04
2018-03-14T09:08:36.971Z,1011.74
2018-03-14T09:09:36.929Z,1013.30
2018-03-14T09:10:36.921Z,1012.13
2018-03-14T09:11:36.905Z,1013.83
2018-03-14T09:12:36.883Z,1011.98
2018-03-14T09:13:36.886Z,1013.38
2018-03-14T09:14:36.871Z,1012.14
2018-03-14T09:15:36.836Z,1011.58
2018-03-14T09:16:36.822Z,1012.83
2018-03-14T09:17:36.805Z,1010.68
2018-03-14T09:18:36.795Z,1012.18
2018-03-14T09:19:36.789Z,1011.43
2018-03-14T09:20:36.760Z,1010.84
2018-03-14T09:21:36.743Z,1010.81
2018-03-14T09:22:36.742Z,1010.80
2018-03-14T09:23:36.708Z,1011.96
2018-03-14T09:24:36.716Z,1010.78
2018-03-14T09:25:36.680Z,1010.19
2018-03-14T09:26:36.672Z,1010.08
2018-03-14T09:27:36.706Z,1010.11
2018-03-14T09:28:36.641Z,1010.26
2018-03-14T09:29:36.641Z,1011.01
2018-03-14T09:30:36.622Z,1011.76
2018-03-14T09:31:36.601Z,1011.17
2018-03-14T09:32:36.592Z,1012.84
2018-03-14T09:33:36.566Z,1013.31
2018-03-14T09:34:36.564Z,1013.21
2018-03-14T09:35:36.535Z,1010.56
2018-03-14T09:36:36.528Z,1013.20
2018-03-14T09:37:36.515Z,1013.42
2018-03-14T09:38:36.490Z,1016.37
2018-03-14T09:39:36.485Z,1016.47
2018-03-14T09:40:36.508Z,1016.72
2018-03-14T09:41:36.454Z,1016.94
2018-03-14T09:42:36.435Z,1017.13
2018-03-14T09:43:36.422Z,1010.56
2018-03-14T09:44:36.413Z,1017.32
2018-03-14T09:45:36.396Z,1017.14
2018-03-14T09:46:36.403Z,1017.29
2018-03-14T09:47:36.368Z,1017.21
2018-03-14T09:48:36.355Z,1017.04
2018-03-14T09:49:36.346Z,1017.23
2018-03-14T09:50:36.346Z,1017.49
2018-03-14T09:51:36.321Z,1017.61
2018-03-14T09:52:36.328Z,1018.34
2018-03-14T09:53:36.307Z,1018.93
2018-03-14T09:54:36.285Z,1018.79
2018-03-14T09:55:36.271Z,1019.41
2018-03-14T09:56:36.264Z,1018.37
2018-03-14T09:57:36.273Z,1019.34
2018-03-14T09:58:36.243Z,1011.12
2018-03-14T09:59:36.225Z,1011.61
2018-03-14T10:00:36.220Z,1011.61
2018-03-14T10:01:36.211Z,1015.68
2018-03-14T10:02:36.219Z,1019.80
2018-03-14T10:03:36.189Z,1017.62
2018-03-14T10:04:36.181Z,1017.93
2018-03-14T10:05:36.172Z,1015.75
2018-03-14T10:06:36.166Z,1016.13
2018-03-14T10:07:36.203Z,1015.12
2018-03-14T10:08:36.143Z,1014.40
2018-03-14T10:09:36.134Z,1013.61
2018-03-14T10:10:36.120Z,1013.17
2018-03-14T10:11:36.115Z,1011.85
2018-03-14T10:12:36.102Z,1012.28
2018-03-14T10:13:36.110Z,1011.81
2018-03-14T10:14:36.090Z,1011.53
2018-03-14T10:15:36.128Z,1011.30
2018-03-14T10:16:36.071Z,1011.03
2018-03-14T10:17:36.056Z,1010.88
2018-03-14T10:18:36.050Z,1010.73
2018-03-14T10:19:36.056Z,1010.63
2018-03-14T10:20:36.030Z,1010.56
2018-03-14T10:21:36.030Z,1010.55
2018-03-14T10:22:36.010Z,1010.49
2018-03-14T10:23:36.002Z,1010.62
2018-03-14T10:24:36.017Z,1010.59
2018-03-14T10:25:36.001Z,1010.60
2018-03-14T10:26:35.988Z,1010.55
2018-03-14T10:27:35.979Z,1010.51
2018-03-14T10:28:35.967Z,1010.52
2018-03-14T10:29:35.978Z,1010.48
2018-03-14T10:30:35.954Z,1010.45
2018-03-14T10:31:37.705Z,1010.44
2018-03-14T10:32:35.939Z,1010.44
2018-03-14T10:33:35.931Z,1010.38
2018-03-14T10:34:35.947Z,1010.32
2018-03-14T10:35:35.918Z,1010.32
2018-03-14T10:36:35.914Z,1010.28
2018-03-14T10:37:35.897Z,1010.30
2018-03-14T10:38:35.899Z,1010.31
2018-03-14T10:39:35.888Z,1010.34
2018-03-14T10:40:35.897Z,1010.36
2018-03-14T10:41:35.870Z,1010.34
2018-03-14T10:42:35.866Z,1010.24
2018-03-14T10:43:35.860Z,1010.42
2018-03-14T10:44:35.849Z,1010.40
2018-03-14T10:45:35.845Z,1010.41
2018-03-14T10:46:35.866Z,1010.13
2018-03-14T10:47:35.829Z,1010.40
2018-03-14T10:48:36.776Z,1010.41
2018-03-14T10:49:35.816Z,1010.25
2018-03-14T10:50:35.906Z,1010.52
2018-03-14T10:51:35.797Z,1010.47
2018-03-14T10:52:35.812Z,1010.30
2018-03-14T10:53:35.778Z,1010.53
2018-03-14T10:54:35.775Z,1010.57
2018-03-14T10:55:35.781Z,1010.56
2018-03-14T10:56:35.758Z,1010.53
2018-03-14T10:57:35.771Z,1010.50
2018-03-14T10:58:35.776Z,1010.45
2018-03-14T10:59:35.740Z,1010.46
2018-03-14T11:00:35.734Z,1010.39
2018-03-14T11:01:35.724Z,1010.34
2018-03-14T11:02:35.732Z,1010.24
2018-03-14T11:03:35.713Z,1010.18
2018-03-14T11:04:35.707Z,1010.17
2018-03-14T11:05:35.701Z,1010.16
2018-03-14T11:06:35.710Z,1010.11
2018-03-14T11:07:35.699Z,1010.07
2018-03-14T11:08:35.696Z,1010.08
2018-03-14T11:09:35.670Z,1010.04
2018-03-14T11:10:35.671Z,1010.00
2018-03-14T11:11:35.661Z,1009.98
2018-03-14T11:12:35.652Z,1009.98
2018-03-14T11:13:35.664Z,1009.95
2018-03-14T11:14:35.639Z,1009.90
2018-03-14T11:15:35.652Z,1009.92
2018-03-14T11:16:35.647Z,1009.85
2018-03-14T11:17:35.618Z,1009.86
2018-03-14T11:18:35.635Z,1009.86
2018-03-14T11:19:35.620Z,1009.74
2018-03-14T11:20:35.613Z,1009.80
2018-03-14T11:21:35.642Z,1009.72
2018-03-14T11:22:35.603Z,1009.68
2018-03-14T11:23:35.595Z,1009.62
2018-03-14T11:24:35.607Z,1009.66
2018-03-14T11:25:35.613Z,1009.66
2018-03-14T11:26:35.581Z,1009.65
2018-03-14T11:27:36.220Z,1009.63
2018-03-14T11:28:35.577Z,1009.60
2018-03-14T11:29:35.582Z,1009.58
2018-03-14T11:30:35.556Z,1009.52
2018-03-14T11:31:35.553Z,1009.49
2018-03-14T11:32:35.552Z,1009.49
2018-03-14T11:33:35.546Z,1009.49
2018-03-14T11:34:35.542Z,1009.49
2018-03-14T11:35:35.552Z,1009.48
2018-03-14T11:36:35.536Z,1009.49
2018-03-14T11:37:35.524Z,1009.46
2018-03-14T11:38:35.524Z,1009.45
2018-03-14T11:39:35.517Z,1009.46
2018-03-14T11:40:35.528Z,1009.40
2018-03-14T11:41:35.514Z,1009.35
2018-03-14T11:42:35.508Z,1009.39
2018-03-14T11:43:35.515Z,1009.39
2018-03-14T11:44:35.507Z,1009.33
2018-03-14T11:45:35.530Z,1009.33
2018-03-14T11:46:35.504Z,1009.43
2018-03-14T11:47:35.486Z,1009.34
2018-03-14T11:48:35.486Z,1009.33
2018-03-14T11:49:35.476Z,1009.33
2018-03-14T11:50:35.476Z,1009.25
2018-03-14T11:51:35.485Z,1009.22
2018-03-14T11:52:35.466Z,1009.19
2018-03-14T11:53:35.465Z,1009.20
2018-03-14T11:54:35.475Z,1009.19
2018-03-14T11:55:35.457Z,1009.18
2018-03-14T11:56:35.468Z,1009.16
2018-03-14T11:57:35.447Z,1009.15
2018-03-14T11:58:35.449Z,1009.16
2018-03-14T11:59:35.445Z,1009.11
2018-03-14T12:00:35.450Z,1009.06
2018-03-14T12:01:35.430Z,1009.10
2018-03-14T12:02:35.451Z,1009.01
2018-03-14T12:03:35.423Z,1009.00
2018-03-14T12:04:35.417Z,1008.97
2018-03-14T12:05:35.416Z,1009.02